Time;durP1;ratioP1;P1;durP2;ratioP2;P2;SDS_P1;SDS_P2;PMS_P1;PMS_P2;Temp;Humidity;BMP_temperature;BMP_pressure;BME280_temperature;BME280_humidity;BME280_pressure;Samples;Min_cycle;Max_cycle;Signal;HPM_P1;HPM_P2
2021/09/19 00:00:15;;;;;;;6.28;4.55;;;17.80;91.30;;;;;;4982063;28;20037;-84
2021/09/19 00:02:41;;;;;;;5.82;4.60;;;17.70;91.40;;;;;;4997771;28;20029;-84
2021/09/19 00:05:08;;;;;;;5.68;4.53;;;17.70;91.40;;;;;;4997814;28;20120;-84
2021/09/19 00:07:34;;;;;;;7.97;5.03;;;17.70;91.80;;;;;;4997960;28;20376;-85
2021/09/19 00:10:00;;;;;;;5.78;4.50;;;17.70;91.50;;;;;;4971105;28;20040;-85
2021/09/19 00:12:25;;;;;;;6.45;4.80;;;17.70;91.50;;;;;;4970749;28;20029;-85
2021/09/19 00:14:51;;;;;;;5.95;4.88;;;17.60;91.60;;;;;;5000205;28;20021;-85
2021/09/19 00:17:17;;;;;;;6.80;5.40;;;17.60;91.60;;;;;;5000235;28;20052;-85
2021/09/19 00:19:44;;;;;;;6.25;4.85;;;17.60;91.60;;;;;;4983774;28;20068;-85
2021/09/19 00:22:09;;;;;;;7.25;5.50;;;17.60;91.70;;;;;;5014057;28;20046;-85
2021/09/19 00:24:35;;;;;;;6.95;5.05;;;17.60;91.70;;;;;;4998080;28;20041;-85
2021/09/19 00:27:03;;;;;;;5.65;5.05;;;17.50;91.80;;;;;;4981504;28;20026;-85
2021/09/19 00:29:28;;;;;;;6.68;4.93;;;17.50;91.80;;;;;;4962352;28;20506;-85
2021/09/19 00:31:54;;;;;;;6.95;5.47;;;17.50;91.80;;;;;;4997110;28;20066;-85
2021/09/19 00:34:20;;;;;;;6.47;5.28;;;17.50;91.80;;;;;;4996555;28;20149;-85
2021/09/19 00:36:46;;;;;;;8.95;5.63;;;17.50;91.80;;;;;;4980779;28;20495;-85
2021/09/19 00:39:11;;;;;;;7.45;5.15;;;17.40;91.70;;;;;;4980817;28;20109;-85
2021/09/19 00:41:39;;;;;;;6.88;4.93;;;17.40;91.90;;;;;;4980878;28;20037;-85
2021/09/19 00:44:06;;;;;;;6.85;5.35;;;17.40;91.90;;;;;;4997242;28;20132;-85
2021/09/19 00:46:32;;;;;;;6.55;5.30;;;17.40;91.80;;;;;;4981174;28;20038;-84
2021/09/19 00:48:58;;;;;;;7.88;5.57;;;17.30;91.90;;;;;;4981999;28;20042;-85
2021/09/19 00:51:24;;;;;;;7.32;5.50;;;17.30;91.90;;;;;;4996792;28;20072;-85
2021/09/19 00:53:51;;;;;;;6.57;5.43;;;17.30;91.90;;;;;;4980695;28;20018;-85
2021/09/19 00:56:26;;;;;;;7.30;5.68;;;17.30;91.90;;;;;;4980431;28;20026;-85
2021/09/19 00:58:54;;;;;;;7.30;5.70;;;17.20;91.90;;;;;;5013560;28;20495;-84
2021/09/19 01:01:20;;;;;;;9.98;6.47;;;17.20;92.00;;;;;;4993725;28;20018;-85
2021/09/19 01:03:46;;;;;;;10.20;6.60;;;17.20;92.10;;;;;;5012919;28;20017;-86
2021/09/19 01:06:13;;;;;;;7.50;6.28;;;17.20;92.20;;;;;;4996642;28;20053;-85
2021/09/19 01:08:42;;;;;;;8.43;6.38;;;17.10;92.10;;;;;;4992724;28;20022;-85
2021/09/19 01:11:10;;;;;;;8.40;6.50;;;17.10;92.30;;;;;;4986881;28;20033;-85
2021/09/19 01:13:36;;;;;;;9.75;6.55;;;17.10;92.20;;;;;;4983553;28;20029;-85
2021/09/19 01:16:04;;;;;;;7.45;5.80;;;17.10;92.20;;;;;;5004995;28;20030;-85
2021/09/19 01:18:30;;;;;;;7.82;6.28;;;17.00;92.20;;;;;;4990986;28;20487;-85
2021/09/19 01:20:56;;;;;;;6.97;5.93;;;17.10;92.30;;;;;;4989989;28;20467;-85
2021/09/19 01:23:22;;;;;;;8.45;5.55;;;17.00;92.40;;;;;;4956657;28;20056;-85
2021/09/19 01:25:49;;;;;;;8.32;6.57;;;17.00;92.30;;;;;;4998695;28;20030;-85
2021/09/19 01:28:15;;;;;;;6.68;5.78;;;17.00;92.40;;;;;;5012561;28;20087;-85
2021/09/19 01:30:41;;;;;;;6.97;5.80;;;17.00;92.40;;;;;;5013559;28;20097;-85
2021/09/19 01:33:07;;;;;;;7.88;6.25;;;16.90;92.50;;;;;;4996111;28;20129;-85
2021/09/19 01:35:34;;;;;;;7.03;5.88;;;16.90;92.50;;;;;;4996162;28;20022;-85
2021/09/19 01:38:00;;;;;;;7.85;6.35;;;16.90;92.50;;;;;;4996582;28;20025;-85
2021/09/19 01:40:27;;;;;;;7.40;6.38;;;16.90;92.50;;;;;;4971865;28;20489;-85
2021/09/19 01:42:53;;;;;;;7.78;6.50;;;16.80;92.50;;;;;;4981599;28;20034;-85
2021/09/19 01:45:34;;;;;;;6.90;6.07;;;16.80;92.50;;;;;;5014097;28;20026;-85
2021/09/19 01:47:59;;;;;;;8.43;6.60;;;16.80;92.70;;;;;;4997838;28;20036;-85
2021/09/19 01:50:26;;;;;;;7.57;6.30;;;16.80;92.70;;;;;;4981795;28;20022;-85
2021/09/19 01:52:53;;;;;;;8.43;6.82;;;16.80;92.70;;;;;;4982242;28;20091;-85
2021/09/19 01:55:19;;;;;;;8.70;7.32;;;16.80;92.90;;;;;;4990182;28;20022;-85
2021/09/19 01:57:45;;;;;;;8.90;6.95;;;16.70;92.80;;;;;;4979434;28;20058;-85
2021/09/19 02:00:12;;;;;;;10.88;7.82;;;16.70;92.80;;;;;;4995575;28;20064;-85
2021/09/19 02:02:38;;;;;;;10.15;7.78;;;16.70;92.80;;;;;;4996200;28;20037;-85
2021/09/19 02:05:07;;;;;;;9.90;7.70;;;16.70;92.80;;;;;;4995720;28;20041;-85
2021/09/19 02:07:36;;;;;;;10.07;7.35;;;16.60;92.80;;;;;;4995785;28;20037;-85
2021/09/19 02:10:02;;;;;;;8.52;7.28;;;16.60;92.90;;;;;;4995168;28;20028;-85
2021/09/19 02:12:28;;;;;;;9.27;7.43;;;16.60;92.90;;;;;;4989800;28;20022;-85
2021/09/19 02:14:53;;;;;;;9.65;7.85;;;16.60;92.90;;;;;;4979521;28;20053;-85
2021/09/19 02:17:19;;;;;;;10.57;7.95;;;16.60;93.00;;;;;;4996118;28;20053;-85
2021/09/19 02:19:54;;;;;;;8.82;6.95;;;16.60;93.00;;;;;;4996036;28;20121;-85
2021/09/19 02:22:20;;;;;;;8.85;7.78;;;16.60;93.10;;;;;;4967886;28;20042;-85
2021/09/19 02:24:45;;;;;;;7.68;6.45;;;16.50;93.10;;;;;;4986486;28;20492;-85
2021/09/19 02:27:11;;;;;;;8.35;7.35;;;16.50;93.10;;;;;;4963908;28;20054;-85
2021/09/19 02:29:36;;;;;;;8.13;7.22;;;16.50;93.20;;;;;;4979304;28;20113;-85
2021/09/19 02:32:03;;;;;;;9.80;7.50;;;16.50;93.30;;;;;;4995197;28;20156;-85
2021/09/19 02:34:29;;;;;;;8.48;7.32;;;16.50;93.30;;;;;;4995196;28;20396;-85
2021/09/19 02:36:55;;;;;;;8.13;7.00;;;16.50;93.30;;;;;;4995166;28;20064;-85
2021/09/19 02:39:20;;;;;;;9.25;7.20;;;16.50;93.30;;;;;;4994969;28;20361;-85
2021/09/19 02:41:46;;;;;;;7.90;7.10;;;16.40;93.30;;;;;;4986365;28;20105;-85
2021/09/19 02:44:12;;;;;;;7.60;6.78;;;16.40;93.30;;;;;;4963874;28;20053;-85
2021/09/19 02:46:37;;;;;;;8.50;7.60;;;16.40;93.30;;;;;;4995131;28;20105;-85
2021/09/19 02:49:03;;;;;;;8.65;7.30;;;16.40;93.30;;;;;;4994947;28;20036;-85
2021/09/19 02:51:29;;;;;;;8.00;7.07;;;16.40;93.40;;;;;;4983466;28;20404;-85
2021/09/19 02:53:54;;;;;;;7.90;7.10;;;16.40;93.50;;;;;;4967937;28;20029;-84
2021/09/19 02:56:20;;;;;;;8.75;7.85;;;16.40;93.60;;;;;;4997574;28;20025;-85
2021/09/19 02:58:46;;;;;;;8.88;7.85;;;16.40;93.60;;;;;;5017677;28;20034;-85
2021/09/19 03:01:11;;;;;;;8.70;7.80;;;16.30;93.60;;;;;;4987571;28;20022;-85
2021/09/19 03:03:37;;;;;;;9.05;7.35;;;16.30;93.60;;;;;;4995830;28;20103;-85
2021/09/19 03:06:03;;;;;;;8.43;7.53;;;16.30;93.60;;;;;;5001451;28;20498;-86
2021/09/19 03:08:28;;;;;;;10.15;7.88;;;16.30;93.60;;;;;;5000249;28;20428;-86
2021/09/19 03:10:54;;;;;;;8.40;7.57;;;16.30;93.70;;;;;;4975782;28;20022;-85
2021/09/19 03:13:20;;;;;;;8.95;7.75;;;16.30;93.70;;;;;;5000304;28;20038;-85
2021/09/19 03:15:45;;;;;;;10.07;7.75;;;16.30;94.30;;;;;;5001349;28;20060;-85
2021/09/19 03:18:11;;;;;;;8.75;7.85;;;16.20;94.00;;;;;;5001126;28;20022;-84
2021/09/19 03:20:37;;;;;;;9.27;7.70;;;16.20;94.00;;;;;;5017552;28;20022;-85
2021/09/19 03:23:02;;;;;;;10.02;7.80;;;16.20;93.90;;;;;;5005262;28;20046;-85
2021/09/19 03:25:28;;;;;;;9.60;8.43;;;16.20;94.00;;;;;;5016909;28;20028;-85
2021/09/19 03:27:54;;;;;;;10.45;8.32;;;16.20;94.00;;;;;;4994159;28;20480;-85
2021/09/19 03:30:20;;;;;;;9.93;8.55;;;16.20;94.50;;;;;;5017387;28;20080;-85
2021/09/19 03:32:46;;;;;;;12.40;9.20;;;16.20;94.30;;;;;;4996219;28;20170;-85
2021/09/19 03:35:12;;;;;;;10.23;8.50;;;16.20;94.20;;;;;;5017319;28;20017;-86
2021/09/19 03:37:39;;;;;;;11.75;9.32;;;16.20;94.20;;;;;;5000926;28;20467;-85
2021/09/19 03:40:07;;;;;;;12.27;9.00;;;16.20;94.20;;;;;;5001131;28;20087;-85
2021/09/19 03:42:33;;;;;;;11.63;9.05;;;16.20;94.20;;;;;;5000785;28;20422;-86
2021/09/19 03:44:59;;;;;;;11.15;8.43;;;16.20;94.20;;;;;;5009995;28;20030;-85
2021/09/19 03:47:24;;;;;;;10.77;8.50;;;16.20;94.50;;;;;;4997699;28;20053;-85
2021/09/19 03:49:50;;;;;;;9.52;8.40;;;16.20;94.20;;;;;;5000990;28;20036;-85
2021/09/19 03:52:16;;;;;;;10.55;8.30;;;16.10;94.20;;;;;;5018251;28;20447;-85
2021/09/19 03:54:42;;;;;;;10.23;8.15;;;16.10;94.30;;;;;;5000801;28;20096;-85
2021/09/19 03:58:03;;;;;;;11.63;9.13;;;16.10;94.30;;;;;;4975474;28;20022;-85
2021/09/19 04:00:29;;;;;;;;;;;16.10;94.40;;;;;;4980718;28;20057;-84
2021/09/19 04:02:55;;;;;;;11.18;8.48;;;16.10;94.40;;;;;;4980466;28;20367;-84
2021/09/19 04:05:21;;;;;;;11.23;8.80;;;16.10;94.40;;;;;;4997426;28;20076;-84
2021/09/19 04:07:46;;;;;;;11.32;9.00;;;16.10;94.40;;;;;;4995399;28;20027;-84
2021/09/19 04:10:13;;;;;;;10.02;8.60;;;16.10;94.40;;;;;;4978333;28;20036;-84
2021/09/19 04:12:40;;;;;;;9.65;8.35;;;16.00;94.40;;;;;;4978287;28;20084;-84
2021/09/19 04:15:06;;;;;;;10.70;8.93;;;16.00;94.40;;;;;;4978483;28;20034;-84
2021/09/19 04:17:32;;;;;;;11.80;8.45;;;16.00;94.40;;;;;;4978131;28;20501;-84
2021/09/19 04:19:58;;;;;;;10.82;8.82;;;16.00;94.50;;;;;;4994442;28;20041;-83
2021/09/19 04:22:25;;;;;;;10.02;8.55;;;16.00;94.70;;;;;;4978048;28;20528;-84
2021/09/19 04:24:52;;;;;;;12.05;9.57;;;16.00;94.40;;;;;;4978674;28;20121;-84
2021/09/19 04:27:18;;;;;;;10.90;9.30;;;16.00;94.70;;;;;;4994866;28;20383;-85
2021/09/19 04:29:44;;;;;;;9.52;8.18;;;15.90;94.40;;;;;;4995522;28;20089;-84
2021/09/19 04:32:09;;;;;;;11.07;9.35;;;15.90;94.40;;;;;;4995466;28;20041;-85
2021/09/19 04:34:35;;;;;;;10.20;8.65;;;15.90;94.40;;;;;;4981823;28;20430;-85
2021/09/19 04:37:01;;;;;;;10.90;8.40;;;15.90;94.50;;;;;;4981333;28;20034;-85
2021/09/19 04:39:27;;;;;;;10.52;9.07;;;15.90;94.60;;;;;;4999184;28;20068;-84
2021/09/19 04:41:52;;;;;;;10.20;8.43;;;15.90;94.50;;;;;;4979104;28;20049;-84
2021/09/19 04:44:18;;;;;;;11.27;9.57;;;15.90;94.60;;;;;;4977770;28;20473;-83
2021/09/19 04:46:43;;;;;;;12.55;8.43;;;15.80;94.60;;;;;;4979292;28;20041;-83
2021/09/19 04:49:09;;;;;;;9.85;8.38;;;15.80;94.60;;;;;;4979619;28;20031;-84
2021/09/19 04:51:35;;;;;;;10.35;7.95;;;15.80;94.90;;;;;;4979835;28;20043;-85
2021/09/19 04:54:00;;;;;;;10.82;8.60;;;15.80;94.60;;;;;;4979325;28;20162;-84
2021/09/19 04:56:27;;;;;;;10.77;8.95;;;15.80;94.60;;;;;;4978266;28;20049;-84
2021/09/19 04:58:53;;;;;;;10.40;8.60;;;15.80;94.60;;;;;;4994088;28;20022;-85
2021/09/19 05:01:18;;;;;;;12.00;8.80;;;15.70;94.60;;;;;;4977950;28;20041;-85
2021/09/19 05:03:44;;;;;;;11.95;8.43;;;15.70;94.60;;;;;;4978411;28;20129;-85
2021/09/19 05:06:10;;;;;;;11.48;9.32;;;15.70;94.60;;;;;;4996140;28;20080;-85
2021/09/19 05:08:36;;;;;;;12.30;8.25;;;15.70;94.60;;;;;;4995351;28;20026;-86
2021/09/19 05:11:02;;;;;;;12.20;9.10;;;15.70;94.60;;;;;;4979884;28;20044;-86
2021/09/19 05:13:28;;;;;;;11.57;9.15;;;15.70;94.70;;;;;;4977793;28;20058;-86
2021/09/19 05:15:54;;;;;;;10.90;9.20;;;15.70;94.70;;;;;;4977320;28;20038;-86
2021/09/19 05:18:20;;;;;;;11.50;8.88;;;15.60;94.60;;;;;;4977239;28;20027;-86
2021/09/19 05:20:45;;;;;;;10.15;8.65;;;15.60;94.70;;;;;;4976914;28;20080;-86
2021/09/19 05:23:11;;;;;;;12.32;8.43;;;15.60;94.70;;;;;;4986450;23;20471;-86
2021/09/19 05:25:37;;;;;;;11.88;9.00;;;15.60;94.70;;;;;;5012879;28;20064;-85
2021/09/19 05:28:03;;;;;;;10.45;8.60;;;15.60;94.80;;;;;;5012820;28;20034;-84
2021/09/19 05:30:29;;;;;;;10.88;8.65;;;15.60;94.80;;;;;;5012556;28;20387;-85
2021/09/19 05:32:54;;;;;;;9.75;8.52;;;15.50;94.80;;;;;;5012542;28;20018;-84
2021/09/19 05:35:21;;;;;;;13.32;9.50;;;15.50;94.80;;;;;;5028931;28;20025;-85
2021/09/19 05:37:47;;;;;;;11.30;8.50;;;15.50;94.80;;;;;;4980028;28;20383;-85
2021/09/19 05:40:14;;;;;;;10.07;8.70;;;15.50;94.80;;;;;;4979981;28;20026;-84
2021/09/19 05:42:40;;;;;;;11.10;8.80;;;15.50;94.80;;;;;;5012532;28;20547;-85
2021/09/19 05:45:06;;;;;;;11.10;9.10;;;15.40;94.90;;;;;;5028876;28;20145;-85
2021/09/19 05:47:32;;;;;;;10.07;9.00;;;15.40;94.90;;;;;;4979760;28;20107;-85
2021/09/19 05:49:57;;;;;;;12.73;9.07;;;15.40;94.90;;;;;;4995913;28;20073;-84
2021/09/19 05:52:24;;;;;;;11.07;8.43;;;15.40;94.90;;;;;;4995895;28;20062;-85
2021/09/19 05:54:50;;;;;;;12.70;9.27;;;15.40;94.90;;;;;;4979991;28;20053;-84
2021/09/19 05:57:15;;;;;;;11.40;8.40;;;15.40;95.00;;;;;;5012138;28;20484;-84
2021/09/19 05:59:41;;;;;;;11.00;8.80;;;15.30;94.90;;;;;;4979718;28;20491;-84
2021/09/19 06:02:07;;;;;;;10.40;8.23;;;15.30;94.90;;;;;;4979792;28;20030;-84
2021/09/19 06:04:33;;;;;;;10.40;8.38;;;15.30;95.00;;;;;;5028685;28;20033;-84
2021/09/19 06:06:59;;;;;;;10.95;8.73;;;15.30;95.10;;;;;;5012851;28;20025;-84
2021/09/19 06:09:25;;;;;;;10.05;8.35;;;15.30;95.10;;;;;;5029688;28;20066;-85
2021/09/19 06:11:50;;;;;;;10.75;8.30;;;15.30;95.10;;;;;;5030456;28;20037;-83
2021/09/19 06:14:16;;;;;;;8.75;7.63;;;15.30;95.10;;;;;;5014164;28;20113;-84
2021/09/19 06:16:42;;;;;;;9.55;7.50;;;15.30;95.10;;;;;;4982197;28;20424;-84
2021/09/19 06:19:07;;;;;;;9.93;8.38;;;15.20;95.10;;;;;;4980449;28;20419;-84
2021/09/19 06:21:33;;;;;;;9.15;7.43;;;15.20;95.10;;;;;;4996362;28;20033;-85
2021/09/19 06:23:59;;;;;;;10.40;8.48;;;15.20;95.20;;;;;;5015295;28;20029;-84
2021/09/19 06:26:25;;;;;;;9.07;7.75;;;15.20;95.20;;;;;;5015025;28;20032;-86
2021/09/19 06:28:50;;;;;;;9.60;7.68;;;15.20;95.20;;;;;;5015145;28;20045;-86
2021/09/19 06:31:16;;;;;;;8.75;7.85;;;15.20;95.20;;;;;;5014484;28;20038;-85
2021/09/19 06:33:43;;;;;;;10.82;8.10;;;15.20;95.20;;;;;;4998591;28;20041;-85
2021/09/19 06:36:08;;;;;;;8.65;7.28;;;15.20;95.20;;;;;;5032832;28;20033;-85
2021/09/19 06:38:35;;;;;;;9.93;7.88;;;15.20;95.30;;;;;;4999447;28;20025;-86
2021/09/19 06:41:01;;;;;;;8.27;7.15;;;15.20;95.30;;;;;;5016017;28;20021;-86
2021/09/19 06:43:26;;;;;;;9.85;7.45;;;15.20;95.30;;;;;;5032763;28;20036;-85
2021/09/19 06:45:52;;;;;;;8.30;7.35;;;15.20;95.40;;;;;;5016519;28;20030;-86
2021/09/19 06:48:18;;;;;;;8.35;7.03;;;15.20;95.40;;;;;;5015771;28;20033;-85
2021/09/19 06:50:44;;;;;;;8.88;7.70;;;15.20;95.40;;;;;;5015389;28;20037;-86
2021/09/19 06:53:09;;;;;;;9.15;7.57;;;15.20;95.40;;;;;;4998151;28;20083;-85
2021/09/19 06:55:35;;;;;;;9.25;7.57;;;15.20;95.40;;;;;;5014495;28;20331;-85
2021/09/19 06:58:01;;;;;;;8.57;7.55;;;15.20;95.40;;;;;;5014311;28;20026;-84
2021/09/19 07:00:28;;;;;;;9.98;7.78;;;15.20;95.40;;;;;;5014555;28;20021;-84
2021/09/19 07:02:54;;;;;;;8.90;7.28;;;15.20;95.50;;;;;;5014591;28;20033;-84
2021/09/19 07:05:20;;;;;;;9.50;7.60;;;15.20;95.50;;;;;;5014655;28;20026;-84
2021/09/19 07:07:46;;;;;;;8.25;7.35;;;15.20;95.50;;;;;;5014598;28;20037;-84
2021/09/19 07:10:13;;;;;;;8.85;7.38;;;15.20;95.50;;;;;;5014200;28;20052;-84
2021/09/19 07:12:38;;;;;;;9.10;7.30;;;15.20;95.50;;;;;;4998318;28;20044;-85
2021/09/19 07:15:06;;;;;;;8.95;7.38;;;15.20;95.50;;;;;;5013907;28;20033;-85
2021/09/19 07:17:32;;;;;;;9.38;7.97;;;15.20;95.50;;;;;;5031079;28;20363;-85
2021/09/19 07:19:59;;;;;;;9.20;7.65;;;15.30;95.50;;;;;;5030972;28;20029;-85
2021/09/19 07:22:26;;;;;;;8.68;6.93;;;15.20;95.50;;;;;;4995069;28;20050;-85
2021/09/19 07:24:52;;;;;;;8.65;7.30;;;15.20;95.50;;;;;;5012424;28;20416;-85
2021/09/19 07:27:18;;;;;;;8.57;6.95;;;15.30;95.60;;;;;;5016504;28;20026;-85
2021/09/19 07:29:44;;;;;;;7.90;7.07;;;15.30;95.70;;;;;;4999827;28;20084;-86
2021/09/19 07:32:12;;;;;;;8.27;7.38;;;15.30;95.70;;;;;;4997827;28;20420;-86
2021/09/19 07:34:40;;;;;;;9.05;7.07;;;15.30;95.70;;;;;;5015440;28;20101;-84
2021/09/19 07:37:06;;;;;;;8.57;7.03;;;15.40;95.70;;;;;;5013116;28;20041;-86
2021/09/19 07:39:33;;;;;;;11.73;7.25;;;15.40;95.70;;;;;;5003237;28;20022;-86
2021/09/19 07:41:59;;;;;;;8.07;6.72;;;15.40;95.70;;;;;;4996972;28;20097;-90
2021/09/19 07:44:24;;;;;;;7.00;6.00;;;15.40;95.70;;;;;;4999011;28;20030;-87
2021/09/19 07:46:51;;;;;;;8.18;6.72;;;15.50;95.70;;;;;;4999605;28;20026;-89
2021/09/19 07:49:18;;;;;;;8.13;7.00;;;15.50;95.70;;;;;;5000540;28;20032;-89
2021/09/19 07:51:44;;;;;;;7.55;6.40;;;15.50;95.80;;;;;;5016403;28;20036;-89
2021/09/19 07:54:10;;;;;;;7.60;6.10;;;15.60;95.90;;;;;;4999798;28;20022;-89
2021/09/19 07:56:36;;;;;;;7.93;6.00;;;15.60;95.80;;;;;;5016502;28;20494;-89
2021/09/19 07:59:02;;;;;;;7.18;6.40;;;15.70;95.90;;;;;;5002003;28;20026;-89
2021/09/19 08:01:27;;;;;;;7.00;6.13;;;15.70;95.90;;;;;;5015569;28;20044;-88
2021/09/19 08:03:53;;;;;;;7.75;6.43;;;15.80;95.90;;;;;;4998487;28;20030;-88
2021/09/19 08:06:22;;;;;;;8.50;7.10;;;15.80;96.00;;;;;;5014956;28;20117;-88
2021/09/19 08:08:51;;;;;;;7.40;6.10;;;15.80;96.00;;;;;;5031169;28;20379;-89
2021/09/19 08:11:17;;;;;;;7.75;6.40;;;15.90;96.00;;;;;;4977379;28;20038;-89
2021/09/19 08:13:43;;;;;;;8.27;6.85;;;15.90;96.00;;;;;;4993611;28;20037;-89
2021/09/19 08:16:09;;;;;;;8.10;6.53;;;16.00;96.00;;;;;;4996222;28;20074;-89
2021/09/19 08:18:35;;;;;;;8.18;5.80;;;16.10;96.00;;;;;;4994986;28;20030;-90
2021/09/19 08:21:03;;;;;;;7.55;6.55;;;16.10;96.10;;;;;;4996499;28;20029;-89
2021/09/19 08:23:29;;;;;;;7.25;5.70;;;16.20;96.10;;;;;;4959578;28;20053;-89
2021/09/19 08:25:55;;;;;;;6.60;5.45;;;16.20;96.10;;;;;;4976352;28;20030;-89
2021/09/19 08:28:21;;;;;;;6.75;5.28;;;16.30;96.10;;;;;;4976908;28;20473;-89
2021/09/19 08:30:47;;;;;;;7.25;6.13;;;16.30;96.10;;;;;;4959605;28;20031;-89
2021/09/19 08:33:13;;;;;;;7.95;6.50;;;16.40;96.10;;;;;;4975539;28;20041;-89
2021/09/19 08:35:39;;;;;;;6.95;5.95;;;16.40;96.10;;;;;;4976182;28;20023;-89
2021/09/19 08:38:06;;;;;;;7.63;6.57;;;16.50;96.10;;;;;;4975735;28;20045;-89
2021/09/19 08:40:34;;;;;;;6.68;5.60;;;16.60;96.10;;;;;;4976031;28;20023;-89
2021/09/19 08:43:01;;;;;;;7.07;5.45;;;16.60;96.00;;;;;;4959779;28;20039;-89
2021/09/19 08:45:26;;;;;;;7.63;5.95;;;16.70;96.00;;;;;;4975479;28;20035;-90
2021/09/19 08:47:52;;;;;;;6.93;5.85;;;16.80;96.00;;;;;;4959413;28;20485;-89
2021/09/19 08:50:20;;;;;;;7.05;5.60;;;16.80;96.00;;;;;;4975993;28;20380;-90
2021/09/19 08:52:47;;;;;;;6.63;5.20;;;16.90;95.90;;;;;;4959778;28;20062;-90
2021/09/19 08:55:12;;;;;;;7.20;4.82;;;17.00;95.90;;;;;;4959358;28;20023;-90
2021/09/19 08:57:39;;;;;;;5.80;4.50;;;17.00;95.90;;;;;;4959386;28;20079;-90
2021/09/19 09:00:08;;;;;;;6.22;4.40;;;17.10;95.90;;;;;;4959180;28;20023;-89
2021/09/19 09:02:54;;;;;;;5.30;4.60;;;17.20;95.90;;;;;;4975381;28;20026;-88
2021/09/19 09:05:26;;;;;;;5.28;4.18;;;17.30;95.90;;;;;;4975460;28;20365;-89
2021/09/19 09:07:54;;;;;;;5.65;4.75;;;17.30;95.90;;;;;;4975162;28;20034;-89
2021/09/19 09:10:40;;;;;;;5.97;4.88;;;17.40;95.90;;;;;;4976457;28;20062;-89
2021/09/19 09:13:11;;;;;;;5.72;4.00;;;17.50;95.80;;;;;;4976032;28;20086;-91
2021/09/19 09:15:46;;;;;;;5.60;4.50;;;17.60;95.70;;;;;;4975832;28;20110;-89
2021/09/19 09:18:30;;;;;;;4.32;3.42;;;17.70;95.70;;;;;;4977811;28;20027;-89
2021/09/19 09:20:58;;;;;;;5.07;4.07;;;17.80;95.70;;;;;;4979910;28;20031;-90
2021/09/19 09:23:27;;;;;;;5.57;3.95;;;17.80;95.60;;;;;;4993901;28;20522;-90
2021/09/19 09:26:11;;;;;;;4.88;4.10;;;17.90;95.60;;;;;;4994803;28;20034;-89
2021/09/19 09:29:02;;;;;;;6.82;4.97;;;18.00;95.40;;;;;;4996403;28;20049;-89
2021/09/19 09:31:28;;;;;;;;;;;18.20;95.10;;;;;;4996124;28;20026;-89
2021/09/19 09:33:55;;;;;;;5.13;4.22;;;18.20;95.00;;;;;;4995372;28;19956;-89
2021/09/19 09:36:32;;;;;;;4.60;3.42;;;18.30;94.90;;;;;;4995148;28;20027;-89
2021/09/19 09:38:59;;;;;;;5.10;4.10;;;18.40;94.80;;;;;;4996301;28;20117;-89
2021/09/19 09:41:42;;;;;;;4.85;3.97;;;18.50;94.90;;;;;;4995052;28;20022;-89
2021/09/19 09:44:31;;;;;;;3.90;3.30;;;18.60;94.80;;;;;;4994230;28;20050;-90
2021/09/19 09:46:58;;;;;;;4.00;3.00;;;18.70;94.70;;;;;;4994231;28;20126;-90
2021/09/19 09:49:43;;;;;;;4.47;3.67;;;18.80;94.70;;;;;;4994347;28;20100;-89
2021/09/19 09:52:32;;;;;;;4.60;3.50;;;18.90;94.30;;;;;;4995115;28;20507;-89
2021/09/19 09:55:16;;;;;;;3.75;3.20;;;19.00;93.50;;;;;;5007849;28;20034;-89
2021/09/19 09:58:21;;;;;;;2.90;2.53;;;19.00;93.20;;;;;;4998870;28;20023;-90
2021/09/19 10:00:54;;;;;;;4.43;2.70;;;19.10;92.70;;;;;;5004760;28;20124;-92
2021/09/19 10:03:20;;;;;;;3.50;2.65;;;19.20;92.60;;;;;;5017114;28;20387;-89
2021/09/19 10:05:46;;;;;;;3.97;2.88;;;19.30;92.30;;;;;;5009962;28;20034;-88
2021/09/19 10:08:13;;;;;;;5.38;2.63;;;19.30;92.30;;;;;;5013914;28;20084;-89
2021/09/19 10:10:43;;;;;;;3.28;2.38;;;19.40;92.40;;;;;;5021552;28;20383;-86
2021/09/19 10:13:14;;;;;;;4.97;2.50;;;19.50;92.50;;;;;;5015183;28;20018;-85
2021/09/19 10:15:41;;;;;;;3.15;2.78;;;19.60;92.40;;;;;;5012880;28;20057;-86
2021/09/19 10:18:09;;;;;;;5.60;2.88;;;19.60;91.80;;;;;;5012499;28;20022;-84
2021/09/19 10:20:44;;;;;;;4.13;2.67;;;19.70;91.60;;;;;;5014217;28;20026;-84
2021/09/19 10:23:20;;;;;;;3.83;3.00;;;19.80;91.80;;;;;;4995716;28;20534;-84
2021/09/19 10:26:00;;;;;;;4.13;2.97;;;19.90;91.40;;;;;;5011186;28;20034;-85
2021/09/19 10:28:37;;;;;;;4.20;3.10;;;20.00;91.30;;;;;;5011626;28;20469;-85
2021/09/19 10:31:09;;;;;;;3.47;2.80;;;20.00;90.90;;;;;;5012139;28;20026;-85
2021/09/19 10:33:53;;;;;;;3.42;2.53;;;20.10;91.00;;;;;;5014003;28;20098;-86
2021/09/19 10:36:30;;;;;;;4.18;2.75;;;20.20;90.80;;;;;;5019325;28;20127;-84
2021/09/19 10:39:17;;;;;;;3.45;2.67;;;20.30;90.90;;;;;;5014598;28;20076;-84
2021/09/19 10:42:20;;;;;;;4.20;2.63;;;20.40;90.00;;;;;;5015167;28;20054;-84
2021/09/19 10:45:01;;;;;;;2.45;2.03;;;20.40;89.90;;;;;;5026211;28;20052;-85
2021/09/19 10:47:48;;;;;;;3.58;2.60;;;20.50;90.30;;;;;;5024195;28;20017;-87
2021/09/19 10:50:25;;;;;;;4.40;2.97;;;20.60;90.10;;;;;;5037519;28;20014;-84
2021/09/19 10:52:55;;;;;;;4.70;2.80;;;20.70;90.10;;;;;;5031050;28;20044;-84
2021/09/19 10:55:30;;;;;;;4.83;2.53;;;20.80;90.00;;;;;;5017934;28;20030;-86
2021/09/19 10:58:04;;;;;;;2.72;2.10;;;20.80;89.70;;;;;;5028481;28;20475;-85
2021/09/19 11:00:33;;;;;;;4.75;2.63;;;20.90;89.70;;;;;;5011471;28;20026;-85
2021/09/19 11:03:28;;;;;;;4.10;2.90;;;21.00;87.90;;;;;;4996743;28;20038;-84
2021/09/19 11:05:54;;;;;;;3.20;2.33;;;21.10;87.20;;;;;;5026502;28;20022;-86
2021/09/19 11:08:20;;;;;;;2.95;2.50;;;21.10;87.70;;;;;;5013819;28;20097;-85
2021/09/19 11:11:10;;;;;;;4.80;2.55;;;21.20;88.00;;;;;;5012675;28;20133;-87
2021/09/19 11:13:42;;;;;;;3.20;2.40;;;21.30;88.00;;;;;;5011339;28;20030;-85
2021/09/19 11:16:16;;;;;;;3.25;2.70;;;21.30;86.00;;;;;;5012215;28;20022;-84
2021/09/19 11:18:54;;;;;;;6.25;2.53;;;21.40;86.00;;;;;;5016812;28;20022;-85
2021/09/19 11:21:19;;;;;;;3.60;2.50;;;21.50;85.50;;;;;;5057718;23;20057;-85
2021/09/19 11:24:08;;;;;;;2.92;2.40;;;21.50;85.60;;;;;;5041448;28;21259;-85
2021/09/19 11:26:43;;;;;;;3.42;2.70;;;21.70;85.60;;;;;;5038763;28;20031;-84
2021/09/19 11:29:24;;;;;;;3.05;2.08;;;21.70;85.30;;;;;;5039330;28;20021;-84
2021/09/19 11:31:51;;;;;;;2.55;2.30;;;21.80;85.40;;;;;;5057717;28;20116;-84
2021/09/19 11:34:23;;;;;;;3.33;2.40;;;21.80;85.20;;;;;;5032838;28;20526;-84
2021/09/19 11:36:55;;;;;;;3.28;2.45;;;21.90;85.40;;;;;;5045159;28;20470;-84
2021/09/19 11:39:21;;;;;;;3.45;2.20;;;22.00;85.30;;;;;;5033855;28;20055;-84
2021/09/19 11:41:49;;;;;;;3.30;2.42;;;22.00;85.40;;;;;;5021460;28;20037;-84
2021/09/19 11:44:16;;;;;;;2.67;2.00;;;22.10;85.10;;;;;;5037797;28;20013;-84
2021/09/19 11:46:47;;;;;;;3.28;2.30;;;22.20;85.50;;;;;;5021616;28;20036;-84
2021/09/19 11:49:13;;;;;;;2.92;2.10;;;22.30;83.80;;;;;;5037818;28;20021;-84
2021/09/19 11:51:41;;;;;;;2.03;1.77;;;22.40;83.20;;;;;;5004764;28;20029;-84
2021/09/19 11:54:06;;;;;;;2.78;2.15;;;22.40;83.30;;;;;;5038815;28;20017;-84
2021/09/19 11:56:36;;;;;;;2.75;2.05;;;22.50;83.30;;;;;;5037848;28;20116;-84
2021/09/19 11:59:02;;;;;;;2.85;2.30;;;22.60;82.00;;;;;;5038545;28;20044;-85
2021/09/19 12:01:28;;;;;;;2.88;1.75;;;22.70;82.20;;;;;;5021212;28;20033;-84
2021/09/19 12:04:03;;;;;;;1.80;1.60;;;22.70;79.60;;;;;;5021240;28;20052;-84
2021/09/19 12:06:30;;;;;;;3.00;2.08;;;22.80;79.70;;;;;;5038331;28;20033;-84
2021/09/19 12:08:55;;;;;;;2.72;2.20;;;22.80;80.30;;;;;;5037968;28;20025;-85
2021/09/19 12:11:38;;;;;;;2.35;1.90;;;22.90;80.20;;;;;;5055524;28;20031;-85
2021/09/19 12:14:14;;;;;;;2.80;1.90;;;22.90;79.60;;;;;;5055668;28;20100;-84
2021/09/19 12:16:40;;;;;;;2.15;1.80;;;23.00;79.60;;;;;;5037413;28;20025;-84
2021/09/19 12:19:20;;;;;;;2.80;1.73;;;23.00;79.80;;;;;;5037277;28;20028;-84
2021/09/19 12:22:19;;;;;;;2.83;1.70;;;23.10;78.70;;;;;;5037371;28;20055;-84
2021/09/19 12:24:51;;;;;;;2.00;1.70;;;23.10;78.00;;;;;;5028911;28;20029;-84
2021/09/19 12:27:22;;;;;;;2.47;1.80;;;23.10;77.60;;;;;;5055090;28;20025;-84
2021/09/19 12:30:06;;;;;;;3.63;2.33;;;23.20;77.80;;;;;;5036278;28;20429;-85
2021/09/19 12:32:54;;;;;;;3.38;2.40;;;23.30;77.80;;;;;;5037180;28;20029;-84
2021/09/19 12:35:30;;;;;;;3.00;2.10;;;23.30;76.80;;;;;;5054842;28;20423;-83
2021/09/19 12:38:03;;;;;;;2.58;1.92;;;23.30;77.90;;;;;;5036989;28;20393;-84
2021/09/19 12:40:30;;;;;;;3.60;2.33;;;23.40;77.80;;;;;;5036795;28;20100;-84
2021/09/19 12:43:06;;;;;;;3.42;2.33;;;23.50;77.30;;;;;;5036582;28;20033;-84
2021/09/19 12:45:31;;;;;;;3.10;2.20;;;23.50;77.40;;;;;;5036726;28;20021;-84
2021/09/19 12:47:57;;;;;;;3.47;2.50;;;23.60;77.80;;;;;;5054754;28;20108;-85
2021/09/19 12:50:25;;;;;;;2.90;2.15;;;23.70;77.50;;;;;;5055185;28;20033;-84
2021/09/19 12:52:57;;;;;;;2.30;2.00;;;23.70;77.60;;;;;;5020474;28;20120;-86